sensor_id;sensor_type;location;lat;lon;timestamp;P1;durP1;ratioP1;P2;durP2;ratioP2
80253;SDS011;69563;37.974;23.708;2023-07-30T00:01:58;6.32;;;3.78;;
80253;SDS011;69563;37.974;23.708;2023-07-30T00:04:24;6.43;;;3.78;;
80253;SDS011;69563;37.974;23.708;2023-07-30T00:06:50;5.47;;;3.80;;
80253;SDS011;69563;37.974;23.708;2023-07-30T00:09:16;5.13;;;3.95;;
80253;SDS011;69563;37.974;23.708;2023-07-30T00:11:41;6.88;;;3.85;;
80253;SDS011;69563;37.974;23.708;2023-07-30T00:14:07;6.50;;;3.70;;
80253;SDS011;69563;37.974;23.708;2023-07-30T00:16:33;6.38;;;3.58;;
80253;SDS011;69563;37.974;23.708;2023-07-30T00:19:17;7.35;;;3.90;;
80253;SDS011;69563;37.974;23.708;2023-07-30T00:21:43;6.10;;;3.80;;
80253;SDS011;69563;37.974;23.708;2023-07-30T00:24:11;6.22;;;3.85;;
80253;SDS011;69563;37.974;23.708;2023-07-30T00:26:39;6.70;;;3.70;;
80253;SDS011;69563;37.974;23.708;2023-07-30T00:29:05;7.93;;;4.05;;
80253;SDS011;69563;37.974;23.708;2023-07-30T00:31:31;5.55;;;3.65;;
80253;SDS011;69563;37.974;23.708;2023-07-30T00:33:56;5.32;;;3.63;;
80253;SDS011;69563;37.974;23.708;2023-07-30T00:36:22;7.15;;;3.55;;
80253;SDS011;69563;37.974;23.708;2023-07-30T00:38:48;7.65;;;3.83;;
80253;SDS011;69563;37.974;23.708;2023-07-30T00:41:14;8.10;;;3.80;;
80253;SDS011;69563;37.974;23.708;2023-07-30T00:43:40;6.38;;;3.72;;
80253;SDS011;69563;37.974;23.708;2023-07-30T00:46:06;6.55;;;3.50;;
80253;SDS011;69563;37.974;23.708;2023-07-30T00:48:31;9.98;;;3.90;;
80253;SDS011;69563;37.974;23.708;2023-07-30T00:50:58;6.50;;;3.45;;
80253;SDS011;69563;37.974;23.708;2023-07-30T00:53:25;6.85;;;3.50;;
80253;SDS011;69563;37.974;23.708;2023-07-30T00:55:52;4.38;;;3.25;;
80253;SDS011;69563;37.974;23.708;2023-07-30T00:58:19;5.80;;;3.40;;
80253;SDS011;69563;37.974;23.708;2023-07-30T01:00:46;5.65;;;3.58;;
80253;SDS011;69563;37.974;23.708;2023-07-30T01:03:12;5.55;;;3.17;;
80253;SDS011;69563;37.974;23.708;2023-07-30T01:05:38;6.80;;;3.35;;
80253;SDS011;69563;37.974;23.708;2023-07-30T01:08:05;6.65;;;3.50;;
80253;SDS011;69563;37.974;23.708;2023-07-30T01:10:31;8.73;;;3.13;;
80253;SDS011;69563;37.974;23.708;2023-07-30T01:12:59;4.65;;;3.17;;
80253;SDS011;69563;37.974;23.708;2023-07-30T01:15:26;7.65;;;3.70;;
80253;SDS011;69563;37.974;23.708;2023-07-30T01:17:53;5.45;;;3.50;;
80253;SDS011;69563;37.974;23.708;2023-07-30T01:20:20;8.10;;;3.55;;
80253;SDS011;69563;37.974;23.708;2023-07-30T01:22:46;4.28;;;3.05;;
80253;SDS011;69563;37.974;23.708;2023-07-30T01:25:12;6.57;;;3.47;;
80253;SDS011;69563;37.974;23.708;2023-07-30T01:27:39;5.72;;;3.13;;
80253;SDS011;69563;37.974;23.708;2023-07-30T01:30:17;5.70;;;3.30;;
80253;SDS011;69563;37.974;23.708;2023-07-30T01:32:48;5.72;;;3.30;;
80253;SDS011;69563;37.974;23.708;2023-07-30T01:35:15;6.50;;;3.13;;
80253;SDS011;69563;37.974;23.708;2023-07-30T01:37:45;5.63;;;3.22;;
80253;SDS011;69563;37.974;23.708;2023-07-30T01:40:12;5.72;;;3.00;;
80253;SDS011;69563;37.974;23.708;2023-07-30T01:42:39;5.43;;;2.85;;
80253;SDS011;69563;37.974;23.708;2023-07-30T01:45:05;4.90;;;3.17;;
80253;SDS011;69563;37.974;23.708;2023-07-30T01:47:31;6.20;;;3.30;;
80253;SDS011;69563;37.974;23.708;2023-07-30T01:49:57;4.32;;;2.95;;
80253;SDS011;69563;37.974;23.708;2023-07-30T01:52:23;6.72;;;3.45;;
80253;SDS011;69563;37.974;23.708;2023-07-30T01:54:48;5.43;;;3.10;;
80253;SDS011;69563;37.974;23.708;2023-07-30T01:57:14;5.38;;;3.05;;
80253;SDS011;69563;37.974;23.708;2023-07-30T01:59:40;4.82;;;2.85;;
80253;SDS011;69563;37.974;23.708;2023-07-30T02:02:05;4.60;;;3.10;;
80253;SDS011;69563;37.974;23.708;2023-07-30T02:04:32;4.28;;;2.97;;
80253;SDS011;69563;37.974;23.708;2023-07-30T02:06:58;4.35;;;2.70;;
80253;SDS011;69563;37.974;23.708;2023-07-30T02:09:23;8.52;;;2.90;;
80253;SDS011;69563;37.974;23.708;2023-07-30T02:11:49;6.50;;;2.80;;
80253;SDS011;69563;37.974;23.708;2023-07-30T02:14:15;5.47;;;2.80;;
80253;SDS011;69563;37.974;23.708;2023-07-30T02:16:40;4.07;;;2.83;;
80253;SDS011;69563;37.974;23.708;2023-07-30T02:19:07;6.80;;;2.70;;
80253;SDS011;69563;37.974;23.708;2023-07-30T02:21:33;6.30;;;2.80;;
80253;SDS011;69563;37.974;23.708;2023-07-30T02:24:02;5.60;;;2.80;;
80253;SDS011;69563;37.974;23.708;2023-07-30T02:26:27;6.90;;;2.90;;
80253;SDS011;69563;37.974;23.708;2023-07-30T02:28:53;5.95;;;3.00;;
80253;SDS011;69563;37.974;23.708;2023-07-30T02:31:19;5.43;;;3.00;;
80253;SDS011;69563;37.974;23.708;2023-07-30T02:33:45;6.93;;;3.00;;
80253;SDS011;69563;37.974;23.708;2023-07-30T02:36:10;5.15;;;2.75;;
80253;SDS011;69563;37.974;23.708;2023-07-30T02:38:36;5.45;;;2.90;;
80253;SDS011;69563;37.974;23.708;2023-07-30T02:41:02;6.72;;;2.80;;
80253;SDS011;69563;37.974;23.708;2023-07-30T02:43:27;7.15;;;2.75;;
80253;SDS011;69563;37.974;23.708;2023-07-30T02:45:53;5.80;;;2.90;;
80253;SDS011;69563;37.974;23.708;2023-07-30T02:48:19;6.40;;;2.65;;
80253;SDS011;69563;37.974;23.708;2023-07-30T02:50:44;6.30;;;2.83;;
80253;SDS011;69563;37.974;23.708;2023-07-30T02:53:10;5.28;;;2.83;;
80253;SDS011;69563;37.974;23.708;2023-07-30T02:55:36;5.75;;;2.85;;
80253;SDS011;69563;37.974;23.708;2023-07-30T02:58:01;4.95;;;2.88;;
80253;SDS011;69563;37.974;23.708;2023-07-30T03:00:27;5.03;;;2.70;;
80253;SDS011;69563;37.974;23.708;2023-07-30T03:02:53;6.72;;;2.75;;
80253;SDS011;69563;37.974;23.708;2023-07-30T03:05:18;7.30;;;2.80;;
80253;SDS011;69563;37.974;23.708;2023-07-30T03:07:44;6.38;;;2.97;;
80253;SDS011;69563;37.974;23.708;2023-07-30T03:10:10;6.30;;;2.72;;
80253;SDS011;69563;37.974;23.708;2023-07-30T03:12:36;6.07;;;2.55;;
80253;SDS011;69563;37.974;23.708;2023-07-30T03:15:01;4.35;;;2.50;;
80253;SDS011;69563;37.974;23.708;2023-07-30T03:17:27;5.70;;;2.58;;
80253;SDS011;69563;37.974;23.708;2023-07-30T03:19:53;6.28;;;2.50;;
80253;SDS011;69563;37.974;23.708;2023-07-30T03:22:18;6.32;;;2.60;;
80253;SDS011;69563;37.974;23.708;2023-07-30T03:24:46;4.90;;;2.97;;
80253;SDS011;69563;37.974;23.708;2023-07-30T03:27:12;5.90;;;2.90;;
80253;SDS011;69563;37.974;23.708;2023-07-30T03:29:38;6.68;;;3.00;;
80253;SDS011;69563;37.974;23.708;2023-07-30T03:32:04;5.65;;;2.60;;
80253;SDS011;69563;37.974;23.708;2023-07-30T03:34:30;5.13;;;2.40;;
80253;SDS011;69563;37.974;23.708;2023-07-30T03:36:56;5.18;;;2.70;;
80253;SDS011;69563;37.974;23.708;2023-07-30T03:39:22;5.63;;;2.40;;
80253;SDS011;69563;37.974;23.708;2023-07-30T03:41:48;4.40;;;2.50;;
80253;SDS011;69563;37.974;23.708;2023-07-30T03:44:14;4.85;;;2.60;;
80253;SDS011;69563;37.974;23.708;2023-07-30T03:46:40;3.85;;;2.67;;
80253;SDS011;69563;37.974;23.708;2023-07-30T03:49:05;7.18;;;2.70;;
80253;SDS011;69563;37.974;23.708;2023-07-30T03:51:31;5.03;;;2.47;;
80253;SDS011;69563;37.974;23.708;2023-07-30T03:53:57;5.28;;;2.50;;
80253;SDS011;69563;37.974;23.708;2023-07-30T03:56:23;5.90;;;2.50;;
80253;SDS011;69563;37.974;23.708;2023-07-30T03:58:50;4.97;;;2.40;;
80253;SDS011;69563;37.974;23.708;2023-07-30T04:01:16;8.52;;;3.10;;
80253;SDS011;69563;37.974;23.708;2023-07-30T04:03:41;5.78;;;2.60;;
80253;SDS011;69563;37.974;23.708;2023-07-30T04:06:07;5.40;;;2.40;;
80253;SDS011;69563;37.974;23.708;2023-07-30T04:08:33;4.38;;;2.60;;
80253;SDS011;69563;37.974;23.708;2023-07-30T04:10:58;4.90;;;2.80;;
80253;SDS011;69563;37.974;23.708;2023-07-30T04:13:24;6.15;;;2.53;;
80253;SDS011;69563;37.974;23.708;2023-07-30T04:15:50;4.57;;;2.40;;
80253;SDS011;69563;37.974;23.708;2023-07-30T04:18:15;6.25;;;2.53;;
80253;SDS011;69563;37.974;23.708;2023-07-30T04:20:41;6.70;;;3.08;;
80253;SDS011;69563;37.974;23.708;2023-07-30T04:23:07;6.10;;;2.70;;
80253;SDS011;69563;37.974;23.708;2023-07-30T04:25:32;7.95;;;2.70;;
80253;SDS011;69563;37.974;23.708;2023-07-30T04:27:58;5.43;;;2.60;;
80253;SDS011;69563;37.974;23.708;2023-07-30T04:30:24;6.55;;;2.92;;
80253;SDS011;69563;37.974;23.708;2023-07-30T04:32:50;4.32;;;2.70;;
80253;SDS011;69563;37.974;23.708;2023-07-30T04:35:15;10.43;;;2.90;;
80253;SDS011;69563;37.974;23.708;2023-07-30T04:37:41;5.65;;;3.00;;
80253;SDS011;69563;37.974;23.708;2023-07-30T04:40:07;5.78;;;2.90;;
80253;SDS011;69563;37.974;23.708;2023-07-30T04:42:33;5.60;;;2.40;;
80253;SDS011;69563;37.974;23.708;2023-07-30T04:44:59;4.90;;;2.70;;
80253;SDS011;69563;37.974;23.708;2023-07-30T04:47:25;7.45;;;2.55;;
80253;SDS011;69563;37.974;23.708;2023-07-30T04:49:50;6.28;;;2.75;;
80253;SDS011;69563;37.974;23.708;2023-07-30T04:52:16;6.25;;;2.90;;
80253;SDS011;69563;37.974;23.708;2023-07-30T04:54:42;5.55;;;3.10;;
80253;SDS011;69563;37.974;23.708;2023-07-30T04:57:07;4.57;;;2.85;;
80253;SDS011;69563;37.974;23.708;2023-07-30T04:59:33;5.72;;;2.58;;
80253;SDS011;69563;37.974;23.708;2023-07-30T05:01:59;6.65;;;2.70;;
80253;SDS011;69563;37.974;23.708;2023-07-30T05:04:25;5.95;;;2.80;;
80253;SDS011;69563;37.974;23.708;2023-07-30T05:06:51;5.97;;;2.70;;
80253;SDS011;69563;37.974;23.708;2023-07-30T05:09:17;5.82;;;2.60;;
80253;SDS011;69563;37.974;23.708;2023-07-30T05:11:42;5.57;;;2.78;;
80253;SDS011;69563;37.974;23.708;2023-07-30T05:14:08;6.05;;;2.80;;
80253;SDS011;69563;37.974;23.708;2023-07-30T05:16:34;5.70;;;2.55;;
80253;SDS011;69563;37.974;23.708;2023-07-30T05:19:01;5.63;;;2.78;;
80253;SDS011;69563;37.974;23.708;2023-07-30T05:21:27;4.20;;;2.55;;
80253;SDS011;69563;37.974;23.708;2023-07-30T05:23:53;4.22;;;2.53;;
80253;SDS011;69563;37.974;23.708;2023-07-30T05:26:18;5.70;;;3.08;;
80253;SDS011;69563;37.974;23.708;2023-07-30T05:28:44;5.07;;;2.60;;
80253;SDS011;69563;37.974;23.708;2023-07-30T05:31:10;5.10;;;2.65;;
80253;SDS011;69563;37.974;23.708;2023-07-30T05:33:35;7.43;;;2.58;;
80253;SDS011;69563;37.974;23.708;2023-07-30T05:36:01;4.68;;;2.80;;
80253;SDS011;69563;37.974;23.708;2023-07-30T05:38:27;4.43;;;2.58;;
80253;SDS011;69563;37.974;23.708;2023-07-30T05:40:53;4.55;;;2.80;;
80253;SDS011;69563;37.974;23.708;2023-07-30T05:43:18;5.05;;;2.47;;
80253;SDS011;69563;37.974;23.708;2023-07-30T05:45:44;6.10;;;2.53;;
80253;SDS011;69563;37.974;23.708;2023-07-30T05:48:10;6.57;;;2.88;;
80253;SDS011;69563;37.974;23.708;2023-07-30T05:50:36;4.55;;;2.50;;
80253;SDS011;69563;37.974;23.708;2023-07-30T05:53:01;5.32;;;2.95;;
80253;SDS011;69563;37.974;23.708;2023-07-30T05:55:27;5.03;;;2.78;;
80253;SDS011;69563;37.974;23.708;2023-07-30T05:57:53;5.95;;;2.80;;
80253;SDS011;69563;37.974;23.708;2023-07-30T06:00:19;4.75;;;2.47;;
80253;SDS011;69563;37.974;23.708;2023-07-30T06:02:44;7.07;;;2.90;;
80253;SDS011;69563;37.974;23.708;2023-07-30T06:05:10;5.15;;;2.70;;
80253;SDS011;69563;37.974;23.708;2023-07-30T06:07:36;5.35;;;2.88;;
80253;SDS011;69563;37.974;23.708;2023-07-30T06:10:02;6.32;;;2.90;;
80253;SDS011;69563;37.974;23.708;2023-07-30T06:12:28;7.13;;;2.72;;
80253;SDS011;69563;37.974;23.708;2023-07-30T06:14:53;6.50;;;2.70;;
80253;SDS011;69563;37.974;23.708;2023-07-30T06:17:19;3.88;;;2.65;;
80253;SDS011;69563;37.974;23.708;2023-07-30T06:19:45;5.47;;;2.53;;
80253;SDS011;69563;37.974;23.708;2023-07-30T06:22:10;5.05;;;2.60;;
80253;SDS011;69563;37.974;23.708;2023-07-30T06:24:36;4.43;;;2.55;;
80253;SDS011;69563;37.974;23.708;2023-07-30T06:27:02;6.95;;;2.55;;
80253;SDS011;69563;37.974;23.708;2023-07-30T06:29:28;4.93;;;2.60;;
80253;SDS011;69563;37.974;23.708;2023-07-30T06:31:53;4.40;;;2.60;;
80253;SDS011;69563;37.974;23.708;2023-07-30T06:34:19;5.55;;;2.53;;
80253;SDS011;69563;37.974;23.708;2023-07-30T06:36:45;6.78;;;2.33;;
80253;SDS011;69563;37.974;23.708;2023-07-30T06:39:10;4.13;;;2.30;;
80253;SDS011;69563;37.974;23.708;2023-07-30T06:41:36;7.47;;;2.28;;
80253;SDS011;69563;37.974;23.708;2023-07-30T06:44:02;4.07;;;2.03;;
80253;SDS011;69563;37.974;23.708;2023-07-30T06:46:28;5.00;;;2.20;;
80253;SDS011;69563;37.974;23.708;2023-07-30T06:48:54;5.88;;;2.28;;
80253;SDS011;69563;37.974;23.708;2023-07-30T06:51:19;4.68;;;2.40;;
80253;SDS011;69563;37.974;23.708;2023-07-30T06:53:48;5.47;;;2.22;;
80253;SDS011;69563;37.974;23.708;2023-07-30T06:56:14;4.93;;;2.20;;
80253;SDS011;69563;37.974;23.708;2023-07-30T06:58:40;6.95;;;2.10;;
80253;SDS011;69563;37.974;23.708;2023-07-30T07:01:06;5.50;;;2.00;;
80253;SDS011;69563;37.974;23.708;2023-07-30T07:03:32;4.70;;;2.13;;
80253;SDS011;69563;37.974;23.708;2023-07-30T07:05:57;3.75;;;2.08;;
80253;SDS011;69563;37.974;23.708;2023-07-30T07:08:23;5.65;;;2.17;;
80253;SDS011;69563;37.974;23.708;2023-07-30T07:10:49;4.78;;;2.40;;
80253;SDS011;69563;37.974;23.708;2023-07-30T07:13:15;2.95;;;1.90;;
80253;SDS011;69563;37.974;23.708;2023-07-30T07:15:41;4.32;;;2.20;;
80253;SDS011;69563;37.974;23.708;2023-07-30T07:18:07;3.80;;;2.10;;
80253;SDS011;69563;37.974;23.708;2023-07-30T07:20:34;6.40;;;2.10;;
80253;SDS011;69563;37.974;23.708;2023-07-30T07:22:59;5.13;;;2.17;;
80253;SDS011;69563;37.974;23.708;2023-07-30T07:25:25;5.80;;;2.45;;
80253;SDS011;69563;37.974;23.708;2023-07-30T07:27:51;5.53;;;2.40;;
80253;SDS011;69563;37.974;23.708;2023-07-30T07:30:17;5.28;;;2.28;;
80253;SDS011;69563;37.974;23.708;2023-07-30T07:32:42;4.68;;;2.10;;
80253;SDS011;69563;37.974;23.708;2023-07-30T07:35:08;6.38;;;2.30;;
80253;SDS011;69563;37.974;23.708;2023-07-30T07:37:34;4.40;;;2.10;;
80253;SDS011;69563;37.974;23.708;2023-07-30T07:40:00;4.00;;;2.20;;
80253;SDS011;69563;37.974;23.708;2023-07-30T07:42:26;3.97;;;1.92;;
80253;SDS011;69563;37.974;23.708;2023-07-30T07:44:51;3.85;;;2.17;;
80253;SDS011;69563;37.974;23.708;2023-07-30T07:47:17;4.20;;;2.15;;
80253;SDS011;69563;37.974;23.708;2023-07-30T07:49:43;4.72;;;2.00;;
80253;SDS011;69563;37.974;23.708;2023-07-30T07:52:08;6.53;;;2.00;;
80253;SDS011;69563;37.974;23.708;2023-07-30T07:54:34;3.42;;;2.17;;
80253;SDS011;69563;37.974;23.708;2023-07-30T07:57:00;5.30;;;1.98;;
80253;SDS011;69563;37.974;23.708;2023-07-30T07:59:26;5.25;;;2.10;;
80253;SDS011;69563;37.974;23.708;2023-07-30T08:01:52;3.40;;;1.73;;
80253;SDS011;69563;37.974;23.708;2023-07-30T08:04:18;3.60;;;2.30;;
80253;SDS011;69563;37.974;23.708;2023-07-30T08:06:46;4.32;;;2.00;;
80253;SDS011;69563;37.974;23.708;2023-07-30T08:09:12;5.50;;;2.22;;
80253;SDS011;69563;37.974;23.708;2023-07-30T08:11:38;5.82;;;1.90;;
80253;SDS011;69563;37.974;23.708;2023-07-30T08:14:04;4.03;;;2.00;;
80253;SDS011;69563;37.974;23.708;2023-07-30T08:16:30;3.55;;;2.22;;
80253;SDS011;69563;37.974;23.708;2023-07-30T08:18:55;6.07;;;2.30;;
80253;SDS011;69563;37.974;23.708;2023-07-30T08:21:21;5.00;;;2.00;;
80253;SDS011;69563;37.974;23.708;2023-07-30T08:23:47;4.25;;;2.10;;
80253;SDS011;69563;37.974;23.708;2023-07-30T08:26:12;6.53;;;2.00;;
80253;SDS011;69563;37.974;23.708;2023-07-30T08:28:38;7.38;;;2.10;;
80253;SDS011;69563;37.974;23.708;2023-07-30T08:31:05;4.68;;;2.40;;
80253;SDS011;69563;37.974;23.708;2023-07-30T08:33:31;3.78;;;2.10;;
80253;SDS011;69563;37.974;23.708;2023-07-30T08:35:58;6.20;;;2.03;;
80253;SDS011;69563;37.974;23.708;2023-07-30T08:38:24;3.38;;;2.10;;
80253;SDS011;69563;37.974;23.708;2023-07-30T08:40:50;7.03;;;2.28;;
80253;SDS011;69563;37.974;23.708;2023-07-30T08:43:17;5.35;;;2.22;;
80253;SDS011;69563;37.974;23.708;2023-07-30T08:45:44;4.72;;;2.00;;
80253;SDS011;69563;37.974;23.708;2023-07-30T08:48:10;6.57;;;2.30;;
80253;SDS011;69563;37.974;23.708;2023-07-30T08:50:36;7.20;;;2.40;;
80253;SDS011;69563;37.974;23.708;2023-07-30T08:53:03;4.45;;;2.15;;
80253;SDS011;69563;37.974;23.708;2023-07-30T08:55:29;5.07;;;2.20;;
80253;SDS011;69563;37.974;23.708;2023-07-30T08:57:59;4.63;;;2.47;;
80253;SDS011;69563;37.974;23.708;2023-07-30T09:00:27;5.30;;;2.20;;
80253;SDS011;69563;37.974;23.708;2023-07-30T09:02:58;4.18;;;2.50;;
80253;SDS011;69563;37.974;23.708;2023-07-30T09:05:25;5.55;;;2.50;;
80253;SDS011;69563;37.974;23.708;2023-07-30T09:07:54;4.47;;;2.38;;
80253;SDS011;69563;37.974;23.708;2023-07-30T09:10:20;5.97;;;2.22;;
80253;SDS011;69563;37.974;23.708;2023-07-30T09:12:46;5.43;;;2.00;;
80253;SDS011;69563;37.974;23.708;2023-07-30T09:15:19;4.18;;;2.30;;
80253;SDS011;69563;37.974;23.708;2023-07-30T09:17:56;4.35;;;2.10;;
80253;SDS011;69563;37.974;23.708;2023-07-30T09:20:21;3.90;;;2.20;;
80253;SDS011;69563;37.974;23.708;2023-07-30T09:22:47;4.50;;;2.22;;
80253;SDS011;69563;37.974;23.708;2023-07-30T09:25:17;6.03;;;2.05;;
80253;SDS011;69563;37.974;23.708;2023-07-30T09:27:47;5.93;;;1.85;;
80253;SDS011;69563;37.974;23.708;2023-07-30T09:30:15;4.45;;;2.20;;
80253;SDS011;69563;37.974;23.708;2023-07-30T09:32:53;5.68;;;2.10;;
80253;SDS011;69563;37.974;23.708;2023-07-30T09:35:20;3.22;;;1.77;;
80253;SDS011;69563;37.974;23.708;2023-07-30T09:37:47;3.35;;;2.20;;
80253;SDS011;69563;37.974;23.708;2023-07-30T09:40:13;5.32;;;1.77;;
80253;SDS011;69563;37.974;23.708;2023-07-30T09:42:45;3.72;;;1.80;;
80253;SDS011;69563;37.974;23.708;2023-07-30T09:45:23;3.95;;;1.88;;
80253;SDS011;69563;37.974;23.708;2023-07-30T09:47:52;5.60;;;2.00;;
80253;SDS011;69563;37.974;23.708;2023-07-30T09:50:19;4.53;;;2.15;;
80253;SDS011;69563;37.974;23.708;2023-07-30T09:52:45;4.22;;;2.10;;
80253;SDS011;69563;37.974;23.708;2023-07-30T09:55:11;4.00;;;1.98;;
80253;SDS011;69563;37.974;23.708;2023-07-30T09:57:37;5.05;;;1.90;;
80253;SDS011;69563;37.974;23.708;2023-07-30T10:00:04;5.03;;;2.33;;
80253;SDS011;69563;37.974;23.708;2023-07-30T10:58:34;6.05;;;2.28;;
80253;SDS011;69563;37.974;23.708;2023-07-30T11:01:01;4.53;;;2.38;;
80253;SDS011;69563;37.974;23.708;2023-07-30T11:03:28;6.15;;;2.38;;
80253;SDS011;69563;37.974;23.708;2023-07-30T11:05:56;5.55;;;2.40;;
80253;SDS011;69563;37.974;23.708;2023-07-30T11:11:18;5.75;;;2.63;;
80253;SDS011;69563;37.974;23.708;2023-07-30T11:13:44;3.97;;;2.40;;
80253;SDS011;69563;37.974;23.708;2023-07-30T11:16:14;3.28;;;2.30;;
80253;SDS011;69563;37.974;23.708;2023-07-30T11:18:41;4.38;;;2.50;;
80253;SDS011;69563;37.974;23.708;2023-07-30T11:21:08;5.80;;;2.55;;
80253;SDS011;69563;37.974;23.708;2023-07-30T11:23:35;3.28;;;2.17;;
80253;SDS011;69563;37.974;23.708;2023-07-30T11:26:03;4.18;;;2.50;;
80253;SDS011;69563;37.974;23.708;2023-07-30T11:28:30;4.60;;;2.38;;
80253;SDS011;69563;37.974;23.708;2023-07-30T11:30:58;4.78;;;2.40;;
80253;SDS011;69563;37.974;23.708;2023-07-30T11:33:26;4.05;;;2.38;;
80253;SDS011;69563;37.974;23.708;2023-07-30T11:35:53;4.47;;;2.47;;
80253;SDS011;69563;37.974;23.708;2023-07-30T11:38:19;4.47;;;2.72;;
80253;SDS011;69563;37.974;23.708;2023-07-30T11:40:46;5.05;;;2.40;;
80253;SDS011;69563;37.974;23.708;2023-07-30T11:43:12;5.97;;;2.78;;
80253;SDS011;69563;37.974;23.708;2023-07-30T11:45:39;4.85;;;2.25;;
80253;SDS011;69563;37.974;23.708;2023-07-30T11:48:08;5.65;;;2.47;;
80253;SDS011;69563;37.974;23.708;2023-07-30T11:50:48;3.58;;;2.40;;
80253;SDS011;69563;37.974;23.708;2023-07-30T11:53:17;6.03;;;2.25;;
80253;SDS011;69563;37.974;23.708;2023-07-30T11:55:44;3.42;;;2.25;;
80253;SDS011;69563;37.974;23.708;2023-07-30T11:58:10;3.55;;;2.38;;
80253;SDS011;69563;37.974;23.708;2023-07-30T12:00:38;4.88;;;2.53;;
80253;SDS011;69563;37.974;23.708;2023-07-30T12:03:06;3.70;;;2.60;;
80253;SDS011;69563;37.974;23.708;2023-07-30T12:05:35;4.63;;;2.45;;
80253;SDS011;69563;37.974;23.708;2023-07-30T12:08:03;4.68;;;2.40;;
80253;SDS011;69563;37.974;23.708;2023-07-30T12:10:43;3.85;;;2.40;;
80253;SDS011;69563;37.974;23.708;2023-07-30T12:13:15;3.60;;;2.30;;
80253;SDS011;69563;37.974;23.708;2023-07-30T12:15:54;3.30;;;2.20;;
80253;SDS011;69563;37.974;23.708;2023-07-30T12:18:21;4.35;;;2.15;;
80253;SDS011;69563;37.974;23.708;2023-07-30T12:20:49;3.78;;;2.17;;
80253;SDS011;69563;37.974;23.708;2023-07-30T12:23:18;3.95;;;2.40;;
80253;SDS011;69563;37.974;23.708;2023-07-30T12:25:44;4.60;;;2.47;;
80253;SDS011;69563;37.974;23.708;2023-07-30T12:28:10;3.72;;;2.40;;
80253;SDS011;69563;37.974;23.708;2023-07-30T12:30:36;3.88;;;2.45;;
80253;SDS011;69563;37.974;23.708;2023-07-30T12:33:02;3.22;;;2.30;;
80253;SDS011;69563;37.974;23.708;2023-07-30T12:35:29;2.92;;;2.15;;
80253;SDS011;69563;37.974;23.708;2023-07-30T12:37:55;2.90;;;2.10;;
80253;SDS011;69563;37.974;23.708;2023-07-30T12:40:20;3.35;;;2.40;;
80253;SDS011;69563;37.974;23.708;2023-07-30T12:42:46;3.97;;;2.20;;
80253;SDS011;69563;37.974;23.708;2023-07-30T12:45:12;4.80;;;2.47;;
80253;SDS011;69563;37.974;23.708;2023-07-30T12:47:37;3.97;;;2.58;;
80253;SDS011;69563;37.974;23.708;2023-07-30T12:50:03;4.82;;;2.53;;
80253;SDS011;69563;37.974;23.708;2023-07-30T12:52:31;3.53;;;2.60;;
80253;SDS011;69563;37.974;23.708;2023-07-30T12:54:57;4.40;;;2.38;;
80253;SDS011;69563;37.974;23.708;2023-07-30T12:57:23;3.47;;;2.45;;
80253;SDS011;69563;37.974;23.708;2023-07-30T12:59:48;3.70;;;2.42;;
80253;SDS011;69563;37.974;23.708;2023-07-30T13:02:14;3.92;;;2.35;;
80253;SDS011;69563;37.974;23.708;2023-07-30T13:04:40;3.60;;;2.33;;
80253;SDS011;69563;37.974;23.708;2023-07-30T13:07:05;3.80;;;2.38;;
80253;SDS011;69563;37.974;23.708;2023-07-30T13:09:31;3.33;;;2.22;;
80253;SDS011;69563;37.974;23.708;2023-07-30T13:11:57;3.90;;;2.60;;
80253;SDS011;69563;37.974;23.708;2023-07-30T13:14:23;3.70;;;2.30;;
80253;SDS011;69563;37.974;23.708;2023-07-30T13:16:49;3.15;;;2.22;;
80253;SDS011;69563;37.974;23.708;2023-07-30T13:19:14;3.83;;;2.53;;
80253;SDS011;69563;37.974;23.708;2023-07-30T13:21:40;3.72;;;2.47;;
80253;SDS011;69563;37.974;23.708;2023-07-30T13:24:06;4.30;;;2.30;;
80253;SDS011;69563;37.974;23.708;2023-07-30T13:26:32;4.30;;;2.25;;
80253;SDS011;69563;37.974;23.708;2023-07-30T13:28:57;3.92;;;2.42;;
80253;SDS011;69563;37.974;23.708;2023-07-30T13:31:23;4.43;;;2.22;;
80253;SDS011;69563;37.974;23.708;2023-07-30T13:33:49;4.13;;;2.22;;
80253;SDS011;69563;37.974;23.708;2023-07-30T13:36:16;4.10;;;2.40;;
80253;SDS011;69563;37.974;23.708;2023-07-30T13:38:41;3.72;;;2.50;;
80253;SDS011;69563;37.974;23.708;2023-07-30T13:41:08;4.55;;;2.35;;
80253;SDS011;69563;37.974;23.708;2023-07-30T13:43:34;4.05;;;2.40;;
80253;SDS011;69563;37.974;23.708;2023-07-30T13:46:00;5.00;;;2.30;;
80253;SDS011;69563;37.974;23.708;2023-07-30T13:48:26;3.63;;;2.42;;
80253;SDS011;69563;37.974;23.708;2023-07-30T13:50:52;3.75;;;2.50;;
80253;SDS011;69563;37.974;23.708;2023-07-30T13:53:17;3.42;;;2.33;;
80253;SDS011;69563;37.974;23.708;2023-07-30T13:55:43;3.70;;;2.47;;
80253;SDS011;69563;37.974;23.708;2023-07-30T13:58:09;4.13;;;2.53;;
80253;SDS011;69563;37.974;23.708;2023-07-30T14:00:36;3.53;;;2.22;;
80253;SDS011;69563;37.974;23.708;2023-07-30T14:03:01;4.15;;;2.40;;
80253;SDS011;69563;37.974;23.708;2023-07-30T14:05:27;4.57;;;2.50;;
80253;SDS011;69563;37.974;23.708;2023-07-30T14:07:53;3.88;;;2.50;;
80253;SDS011;69563;37.974;23.708;2023-07-30T14:10:21;3.97;;;2.50;;
80253;SDS011;69563;37.974;23.708;2023-07-30T14:12:47;3.33;;;2.30;;
80253;SDS011;69563;37.974;23.708;2023-07-30T14:15:13;3.47;;;2.30;;
80253;SDS011;69563;37.974;23.708;2023-07-30T14:17:40;4.20;;;2.45;;
80253;SDS011;69563;37.974;23.708;2023-07-30T14:20:06;4.30;;;2.67;;
80253;SDS011;69563;37.974;23.708;2023-07-30T14:22:33;3.08;;;2.40;;
80253;SDS011;69563;37.974;23.708;2023-07-30T14:24:59;5.15;;;2.58;;
80253;SDS011;69563;37.974;23.708;2023-07-30T14:27:25;4.40;;;2.40;;
80253;SDS011;69563;37.974;23.708;2023-07-30T14:29:51;3.03;;;2.35;;
80253;SDS011;69563;37.974;23.708;2023-07-30T14:32:17;3.80;;;2.15;;
80253;SDS011;69563;37.974;23.708;2023-07-30T14:34:44;3.47;;;2.13;;
80253;SDS011;69563;37.974;23.708;2023-07-30T14:37:10;3.22;;;2.42;;
80253;SDS011;69563;37.974;23.708;2023-07-30T14:39:36;4.10;;;2.08;;
80253;SDS011;69563;37.974;23.708;2023-07-30T14:42:02;3.30;;;2.20;;
80253;SDS011;69563;37.974;23.708;2023-07-30T14:44:28;3.45;;;2.45;;
80253;SDS011;69563;37.974;23.708;2023-07-30T14:46:53;3.55;;;2.40;;
80253;SDS011;69563;37.974;23.708;2023-07-30T14:49:19;3.83;;;2.28;;
80253;SDS011;69563;37.974;23.708;2023-07-30T14:51:45;3.03;;;2.15;;
80253;SDS011;69563;37.974;23.708;2023-07-30T14:54:11;3.72;;;2.25;;
80253;SDS011;69563;37.974;23.708;2023-07-30T14:56:37;3.33;;;2.10;;
80253;SDS011;69563;37.974;23.708;2023-07-30T14:59:03;4.28;;;2.28;;
80253;SDS011;69563;37.974;23.708;2023-07-30T15:01:29;3.83;;;2.60;;
80253;SDS011;69563;37.974;23.708;2023-07-30T15:03:55;2.92;;;2.15;;
80253;SDS011;69563;37.974;23.708;2023-07-30T15:06:21;3.97;;;2.38;;
80253;SDS011;69563;37.974;23.708;2023-07-30T15:08:49;4.63;;;2.42;;
80253;SDS011;69563;37.974;23.708;2023-07-30T15:11:14;4.03;;;2.35;;
80253;SDS011;69563;37.974;23.708;2023-07-30T15:13:40;3.47;;;2.20;;
80253;SDS011;69563;37.974;23.708;2023-07-30T15:16:06;3.65;;;2.10;;
80253;SDS011;69563;37.974;23.708;2023-07-30T15:18:32;4.43;;;2.35;;
80253;SDS011;69563;37.974;23.708;2023-07-30T15:20:58;3.58;;;2.35;;
80253;SDS011;69563;37.974;23.708;2023-07-30T15:23:24;4.97;;;2.50;;
80253;SDS011;69563;37.974;23.708;2023-07-30T15:25:50;3.13;;;2.22;;
80253;SDS011;69563;37.974;23.708;2023-07-30T15:28:17;3.13;;;2.10;;